Flight Track Log - Related Links

Times and Time Zones

All times are in EDT time to prevent confusion due to time zone crossing. See the N272AY flight status page for this flight to view local times or setup timezone preferences in your user account.

Time Position Orientation Groundspeed Altitude Reporting Facility
EDT Latitude Longitude Course Direction KTS MPH feet Rate Location/Type
Tue 06:49:23 AM 50.0290 8.4780 275° West 169 194 3,400  Level FlightAware ADS-B
Tue 06:49:43 AM 50.0300 8.4530 274° West 174 200 3,900 1,200 Climbing FlightAware ADS-B
Tue 06:50:18 AM 50.0260 8.4080 262° West 208 239 4,500 1,080 Climbing FlightAware ADS-B
Tue 06:50:33 AM 50.0230 8.3820 260° West 228 262 4,800 1,600 Climbing FlightAware ADS-B
Tue 06:51:03 AM 50.0170 8.3310 260° West 249 287 5,700 2,040 Climbing FlightAware ADS-B
Tue 06:51:23 AM 50.0130 8.2970 260° West 257 296 6,500 2,700 Climbing FlightAware ADS-B
Tue 06:51:43 AM 50.0180 8.2630 283° West 266 306 7,500 2,760 Climbing FlightAware ADS-B
Tue 06:52:13 AM 50.0340 8.2050 293° West 276 318 8,800 2,509 Climbing FlightAware ADS-B
Tue 06:52:38 AM 50.0470 8.1610 295° West 281 323 9,800 1,200 Climbing FlightAware ADS-B
Tue 06:53:23 AM 50.0790 8.0810 302° West 292 336 10,200 776 Climbing FlightAware ADS-B
Tue 06:54:03 AM 50.1160 8.0110 310° West 336 387 10,900 1,050 Climbing FlightAware ADS-B
Tue 06:54:43 AM 50.1690 7.9540 325° Northwest 368 423 11,600 1,976 Climbing FlightAware ADS-B
Tue 06:55:28 AM 50.2360 7.8840 326° Northwest 369 425 13,700 2,682 Climbing FlightAware ADS-B
Tue 06:56:08 AM 50.2940 7.8240 327° Northwest 372 428 15,400 2,329 Climbing FlightAware ADS-B
Tue 06:56:53 AM 50.3580 7.7570 326° Northwest 376 433 17,000 2,047 Climbing FlightAware ADS-B
Tue 06:57:33 AM 50.4170 7.6940 326° Northwest 389 448 18,300 1,725 Climbing FlightAware ADS-B
Tue 06:58:13 AM 50.4780 7.6310 327° Northwest 394 453 19,300 1,482 Climbing FlightAware ADS-B
Tue 06:58:58 AM 50.5490 7.5550 326° Northwest 412 474 20,400 1,341 Climbing FlightAware ADS-B
Tue 06:59:38 AM 50.6140 7.4870 326° Northwest 425 489 21,200 1,350 Climbing FlightAware ADS-B
Tue 07:00:18 AM 50.6790 7.4170 326° Northwest 432 497 22,200 2,259 Climbing FlightAware ADS-B
Tue 07:01:03 AM 50.7510 7.3410 326° Northwest 409 471 24,400 2,333 Climbing FlightAware ADS-B
Tue 07:01:48 AM 50.8230 7.2640 326° Northwest 411 473 25,700 1,129 Climbing FlightAware ADS-B
Tue 07:02:28 AM 50.8850 7.1970 326° Northwest 412 474 26,000 450 Climbing FlightAware ADS-B
Tue 07:03:08 AM 50.9460 7.1230 323° Northwest 408 470 26,300 655 Climbing FlightAware ADS-B
Tue 07:03:23 AM 50.9610 7.0850 302° West 396 456 26,600 1,091 Climbing FlightAware ADS-B
Tue 07:04:03 AM 50.9950 6.9820 298° West 399 459 27,300 1,059 Climbing FlightAware ADS-B
Tue 07:04:48 AM 51.0350 6.8630 298° West 408 470 28,100 1,059 Climbing FlightAware ADS-B
Tue 07:05:28 AM 51.0830 6.7680 309° West 427 491 28,800 1,125 Climbing FlightAware ADS-B
Tue 07:06:08 AM 51.1390 6.6790 315° West 421 484 29,600 1,200 Climbing FlightAware ADS-B
Tue 07:06:53 AM 51.1960 6.5860 314° West 420 483 30,500 1,059 Climbing FlightAware ADS-B
Tue 07:07:33 AM 51.2530 6.4950 315° West 424 488 31,100 750 Climbing FlightAware ADS-B
Tue 07:08:13 AM 51.3120 6.3980 314° West 437 503 31,500 776 Climbing FlightAware ADS-B
Tue 07:08:58 AM 51.3790 6.2890 315° West 440 506 32,200 667 Climbing FlightAware ADS-B
Tue 07:09:43 AM 51.4480 6.1770 315° West 452 520 32,500 424 Climbing FlightAware ADS-B
Tue 07:10:23 AM 51.5040 6.0840 314° West 460 529 32,800 525 Climbing FlightAware ADS-B
Tue 07:11:03 AM 51.5610 5.9810 312° West 464 534 33,200 706 Climbing FlightAware ADS-B
Tue 07:11:48 AM 51.6240 5.8630 311° West 463 533 33,800 565 Climbing FlightAware ADS-B
Tue 07:12:28 AM 51.6780 5.7630 311° West 465 535 34,000 225 Climbing FlightAware ADS-B
Tue 07:13:08 AM 51.7360 5.6520 310° West 462 532 34,100 494 Climbing FlightAware ADS-B
Tue 07:13:53 AM 51.7970 5.5370 311° West 461 531 34,700 -667 Climbing FlightAware ADS-B
Tue 07:14:11 AM 51.8248 5.4784 311° West 472 543 33,400 450 Descending FlightAware UK
Tue 07:14:33 AM 51.8530 5.4290 311° West 461 531 35,000 143 Climbing FlightAware ADS-B
Tue 07:14:53 AM 51.8800 5.3662 311° West 472 543 33,500 -2,368 Descending FlightAware UK
Tue 07:15:11 AM 51.9070 5.3207 314° West 472 543 33,500 4,080 Level FlightAware UK
Tue 07:15:18 AM 51.9140 5.3130 314° West 464 534 35,200 1,200 Climbing FlightAware ADS-B
Tue 07:15:41 AM 51.9501 5.2429 314° West 472 543 34,100 900 Descending FlightAware UK
Tue 07:15:58 AM 51.9710 5.2030 314° West 460 529 35,800 667 Climbing FlightAware ADS-B
Tue 07:16:17 AM 51.9992 5.1474 314° West 470 541 34,500 267 Descending FlightAware UK
Tue 07:16:43 AM 52.0330 5.0830 314° West 464 534 36,000 1,545 Climbing FlightAware ADS-B
Tue 07:17:23 AM 52.0880 4.9750 310° West 462 532 36,200 -1,241 Climbing FlightAware ADS-B
Tue 07:17:41 AM 52.1155 4.9248 310° West 472 543 34,800 600 Descending FlightAware UK
Tue 07:18:03 AM 52.1400 4.8740 310° West 462 532 36,600 1,881 Climbing FlightAware ADS-B
Tue 07:18:48 AM 52.2000 4.7570 310° West 463 533 36,900 424 Climbing FlightAware ADS-B
Tue 07:19:28 AM 52.2550 4.6490 310° West 465 535 37,200 -1,017 Climbing FlightAware ADS-B
Tue 07:19:47 AM 52.2879 4.5868 310° West 476 548 35,900 -1,784 Descending FlightAware UK
Tue 07:20:05 AM 52.3110 4.5377 308° West 476 548 36,100 4,154 Climbing FlightAware UK
Tue 07:20:13 AM 52.3180 4.5230 308° West 463 533 37,700 750 Climbing FlightAware ADS-B
Tue 07:20:29 AM 52.3438 4.4728 308° West 474 545 36,400 450 Descending FlightAware UK
Tue 07:20:53 AM 52.3720 4.4160 308° West 461 531 38,000 111 Climbing FlightAware ADS-B
Tue 07:21:23 AM 52.4169 4.3277 308° West 474 545 36,500  Descending FlightAware UK
Tue 07:21:33 AM 52.4250 4.3100 308° West 461 531 38,000 1,636 Climbing FlightAware ADS-B
Tue 07:22:18 AM 52.4870 4.1860 309° West 460 529 38,000 -1,125 Level FlightAware ADS-B
Tue 07:22:53 AM 52.5377 4.0847 309° West 476 548 36,500  Descending FlightAware UK
Tue 07:22:58 AM 52.5390 4.0810 309° West 461 531 38,000 2,000 Climbing FlightAware ADS-B
Tue 07:23:38 AM 52.5950 3.9690 309° West 462 532 38,000  Level FlightAware ADS-B
Tue 07:24:23 AM 52.6570 3.8430 309° West 462 532 38,000 -1,111 Level FlightAware ADS-B
Tue 07:24:59 AM 52.7062 3.7416 309° West 474 545 36,500  Descending FlightAware UK
Tue 07:25:03 AM 52.7080 3.7380 309° West 462 532 38,000  Climbing FlightAware ADS-B
Tue 07:25:23 AM 52.7384 3.6758 309° West 476 548 36,500  Descending FlightAware UK
Tue 07:25:48 AM 52.7610 3.6200 309° West 459 528 38,000  Climbing FlightAware ADS-B
Tue 07:26:05 AM 52.7842 3.5491 309° West 478 550 36,500  Descending FlightAware UK
Tue 07:26:28 AM 52.8010 3.4830 309° West 458 527 38,000 1,429 Climbing FlightAware ADS-B
Tue 07:27:08 AM 52.8360 3.3560 295° West 458 527 38,000 -1,343 Level FlightAware ADS-B
Tue 07:27:35 AM 52.8605 3.2625 295° West 478 550 36,500  Descending FlightAware UK
Tue 07:27:53 AM 52.8750 3.2110 295° West 458 527 38,000  Climbing FlightAware ADS-B
Tue 07:28:29 AM 52.9066 3.0898 295° West 476 548 36,500  Descending FlightAware UK
Tue 07:28:33 AM 52.9080 3.0860 295° West 457 526 38,000 2,045 Climbing FlightAware ADS-B
Tue 07:29:13 AM 52.9410 2.9620 294° West 457 526 38,000 -1,216 Level FlightAware ADS-B
Tue 07:29:47 AM 52.9727 2.8405 294° West 476 548 36,500  Descending FlightAware UK
Tue 07:29:58 AM 52.9800 2.8150 294° West 456 525 38,000  Climbing FlightAware ADS-B
Tue 07:30:29 AM 53.0081 2.7062 294° West 476 548 36,500  Descending FlightAware UK
Tue 07:30:38 AM 53.0130 2.6880 294° West 456 525 38,000  Climbing FlightAware ADS-B
Tue 07:30:59 AM 53.0332 2.6109 294° West 474 545 36,500  Descending FlightAware UK
Tue 07:31:23 AM 53.0520 2.5390 294° West 456 525 38,000 1,406 Climbing FlightAware ADS-B
Tue 07:32:03 AM 53.0840 2.4140 293° West 456 525 38,000 -1,525 Level FlightAware ADS-B
Tue 07:32:22 AM 53.1027 2.3414 293° West 474 545 36,500  Descending FlightAware UK
Tue 07:32:48 AM 53.1230 2.2640 293° West 457 526 38,000  Climbing FlightAware ADS-B
Tue 07:33:04 AM 53.1373 2.2058 293° West 474 545 36,500  Descending FlightAware UK
Tue 07:33:28 AM 53.1560 2.1350 293° West 457 526 38,000  Climbing FlightAware ADS-B
Tue 07:33:46 AM 53.1719 2.0699 293° West 476 548 36,500 -2,500 Descending FlightAware UK
Tue 07:34:04 AM 53.1867 2.0116 293° West 476 548 36,500 4,091 Level FlightAware UK
Tue 07:34:08 AM 53.1880 2.0090 293° West 458 527 38,000  Climbing FlightAware ADS-B
Tue 07:34:28 AM 53.2064 1.9344 293° West 476 548 36,500  Descending FlightAware UK
Tue 07:34:48 AM 53.2200 1.8800 293° West 458 527 38,000  Climbing FlightAware ADS-B
Tue 07:35:10 AM 53.2407 1.7979 293° West 474 545 36,500 -2,250 Descending FlightAware UK
Tue 07:35:28 AM 53.2554 1.7393 293° West 474 545 36,500 3,913 Level FlightAware UK
Tue 07:35:33 AM 53.2580 1.7300 293° West 458 527 38,000  Climbing FlightAware ADS-B
Tue 07:35:52 AM 53.2750 1.6613 293° West 474 545 36,500 -2,432 Descending FlightAware UK
Tue 07:36:10 AM 53.2897 1.6026 293° West 474 545 36,500 4,286 Level FlightAware UK
Tue 07:36:13 AM 53.2900 1.6000 293° West 458 527 38,000  Climbing FlightAware ADS-B
Tue 07:36:28 AM 53.3041 1.5447 293° West 474 545 36,500 -2,727 Descending FlightAware UK
Tue 07:36:46 AM 53.3187 1.4859 293° West 476 548 36,500 3,000 Level FlightAware UK
Tue 07:36:58 AM 53.3270 1.4530 293° West 457 526 38,000  Climbing FlightAware ADS-B
Tue 07:37:16 AM 53.3428 1.3889 293° West 474 545 36,500  Descending FlightAware UK
Tue 07:37:44 AM 53.3651 1.2983 293° West 458 527 38,000 1,343 Climbing FlightAware ADS-B
Tue 07:38:23 AM 53.3950 1.1780 293° West 458 527 38,000 -1,607 Level FlightAware ADS-B
Tue 07:38:40 AM 53.4099 1.1153 293° West 476 548 36,500 -2,571 Descending FlightAware UK
Tue 07:38:58 AM 53.4244 1.0558 292° West 476 548 36,500 3,913 Level FlightAware UK
Tue 07:39:03 AM 53.4270 1.0460 292° West 457 526 38,000  Climbing FlightAware ADS-B
Tue 07:39:22 AM 53.4434 0.9779 292° West 474 545 36,500 -2,432 Descending FlightAware UK
Tue 07:39:40 AM 53.4578 0.9191 292° West 474 545 36,500 4,286 Level FlightAware UK
Tue 07:39:43 AM 53.4550 0.9290 292° West 456 525 38,000  Climbing FlightAware ADS-B
Tue 07:40:04 AM 53.4766 0.8405 292° West 472 543 36,500  Descending FlightAware UK
Tue 07:40:28 AM 53.4930 0.7730 292° West 457 526 38,000  Climbing FlightAware ADS-B
Tue 07:40:46 AM 53.5096 0.7027 292° West 474 545 36,500 -2,571 Descending FlightAware UK
Tue 07:41:03 AM 53.5235 0.6442 292° West 476 548 36,500  Level FlightAware UK
Tue 07:41:22 AM 53.5378 0.5842 292° West 476 548 36,500 4,500 Level FlightAware UK
Tue 07:41:23 AM 53.5350 0.5940 292° West 457 526 38,000  Climbing FlightAware ADS-B
Tue 07:41:39 AM 53.5517 0.5256 292° West 476 548 36,500  Descending FlightAware UK
Tue 07:41:59 AM 53.5665 0.4630 292° West 457 526 38,000 1,698 Climbing FlightAware ADS-B
Tue 07:42:32 AM 53.5925 0.3520 292° West 457 526 38,000 -1,731 Level FlightAware ADS-B
Tue 07:42:51 AM 53.6077 0.2883 292° West 476 548 36,500  Descending FlightAware UK
Tue 07:43:06 AM 53.6187 0.2404 292° West 457 526 38,000  Climbing FlightAware ADS-B
Tue 07:43:27 AM 53.6353 0.1702 292° West 474 545 36,500  Descending FlightAware UK
Tue 07:43:38 AM 53.6434 0.1346 292° West 457 526 38,000  Climbing FlightAware ADS-B
Tue 07:43:57 AM 53.6583 0.0711 292° West 476 548 36,500  Descending FlightAware UK
Tue 07:44:10 AM 53.6694 0.0301 292° West 457 526 38,000 3,913 Climbing FlightAware ADS-B
Tue 07:44:20 AM 53.6790 -0.0001 298° West 458 527 38,000  Level FlightAware ADS-B
Tue 07:44:53 AM 53.7192 -0.0973 305° West 459 528 38,000 -1,837 Level FlightAware ADS-B
Tue 07:45:09 AM 53.7424 -0.1398 305° West 474 545 36,500  Descending FlightAware UK
Tue 07:45:36 AM 53.7849 -0.2013 305° West 461 531 38,000  Climbing FlightAware ADS-B
Tue 07:45:57 AM 53.8228 -0.2446 305° West 474 545 36,500  Descending FlightAware UK
Tue 07:46:18 AM 53.8570 -0.2850 305° West 462 532 38,000  Climbing FlightAware ADS-B
Tue 07:46:33 AM 53.8860 -0.3184 305° West 474 545 36,500 -2,727 Descending FlightAware UK
Tue 07:46:51 AM 53.9179 -0.3550 326° Northwest 476 548 36,500 3,600 Level FlightAware UK
Tue 07:46:58 AM 53.9250 -0.3640 326° Northwest 463 533 38,000  Climbing FlightAware ADS-B
Tue 07:47:27 AM 53.9815 -0.4283 326° Northwest 476 548 36,500  Descending FlightAware UK
Tue 07:47:38 AM 53.9970 -0.4470 326° Northwest 463 533 38,000  Climbing FlightAware ADS-B
Tue 07:47:57 AM 54.0344 -0.4901 326° Northwest 476 548 36,500 -2,093 Descending FlightAware UK
Tue 07:48:21 AM 54.0767 -0.5393 326° Northwest 476 548 36,500 3,462 Level FlightAware UK
Tue 07:48:23 AM 54.0780 -0.5410 326° Northwest 462 532 38,000  Climbing FlightAware ADS-B
Tue 07:48:45 AM 54.1189 -0.5887 326° Northwest 474 545 36,500  Descending FlightAware UK
Tue 07:49:03 AM 54.1440 -0.6190 326° Northwest 462 532 38,000 1,429 Climbing FlightAware ADS-B
Tue 07:49:48 AM 54.2250 -0.7140 326° Northwest 462 532 38,000 -1,500 Level FlightAware ADS-B
Tue 07:50:03 AM 54.2553 -0.7496 326° Northwest 474 545 36,500 -2,727 Descending FlightAware UK
Tue 07:50:21 AM 54.2869 -0.7868 325° Northwest 472 543 36,500 3,600 Level FlightAware UK
Tue 07:50:28 AM 54.2920 -0.7940 325° Northwest 461 531 38,000  Climbing FlightAware ADS-B
Tue 07:50:51 AM 54.3394 -0.8489 325° Northwest 472 543 36,500  Descending FlightAware UK
Tue 07:51:08 AM 54.3630 -0.8780 325° Northwest 462 532 38,000  Climbing FlightAware ADS-B
Tue 07:51:09 AM 54.3709 -0.8863 325° Northwest 474 545 36,500 -4,737 Descending FlightAware UK
Tue 07:51:27 AM 54.4024 -0.9239 325° Northwest 474 545 36,500  Level FlightAware UK
Tue 07:51:45 AM 54.4340 -0.9616 325° Northwest 474 545 36,500 2,903 Level FlightAware UK
Tue 07:51:58 AM 54.4510 -0.9830 325° Northwest 463 533 38,000  Climbing FlightAware ADS-B
Tue 07:52:15 AM 54.4866 -1.0247 325° Northwest 476 548 36,500 -2,647 Descending FlightAware UK
Tue 07:52:32 AM 54.5178 -1.0622 325° Northwest 474 545 36,500 3,913 Level FlightAware UK
Tue 07:52:38 AM 54.5210 -1.0670 325° Northwest 463 533 38,000  Climbing FlightAware ADS-B
Tue 07:52:56 AM 54.5599 -1.1129 325° Northwest 474 545 36,500 -2,500 Descending FlightAware UK
Tue 07:53:14 AM 54.5914 -1.1509 325° Northwest 474 545 36,500 4,091 Level FlightAware UK
Tue 07:53:18 AM 54.5950 -1.1560 325° Northwest 462 532 38,000  Climbing FlightAware ADS-B
Tue 07:53:56 AM 54.6645 -1.2391 325° Northwest 472 543 36,500  Descending FlightAware UK
Tue 07:53:58 AM 54.6650 -1.2400 325° Northwest 461 531 38,000  Climbing FlightAware ADS-B
Tue 07:54:20 AM 54.7063 -1.2900 325° Northwest 472 543 36,500  Descending FlightAware UK
Tue 07:54:43 AM 54.7420 -1.3330 325° Northwest 461 531 38,000  Climbing FlightAware ADS-B
Tue 07:55:14 AM 54.8003 -1.4044 325° Northwest 472 543 36,500  Descending FlightAware UK
Tue 07:55:23 AM 54.8110 -1.4170 325° Northwest 462 532 38,000  Climbing FlightAware ADS-B
Tue 07:55:56 AM 54.8731 -1.4937 325° Northwest 472 543 36,500  Descending FlightAware UK
Tue 07:56:03 AM 54.8810 -1.5030 325° Northwest 463 533 38,000  Climbing FlightAware ADS-B
Tue 07:56:26 AM 54.9254 -1.5580 325° Northwest 472 543 36,500  Descending FlightAware UK
Tue 07:56:53 AM 54.9680 -1.6120 325° Northwest 463 533 38,000  Climbing FlightAware ADS-B
Tue 07:57:08 AM 54.9958 -1.6546 325° Northwest 476 548 36,500 -2,727 Descending FlightAware UK
Tue 07:57:26 AM 55.0222 -1.7028 314° West 476 548 36,500 3,600 Level FlightAware UK
Tue 07:57:33 AM 55.0280 -1.7140 314° West 459 528 38,000  Climbing FlightAware ADS-B
Tue 07:57:50 AM 55.0539 -1.7719 314° West 474 545 36,500  Descending FlightAware UK
Tue 07:58:13 AM 55.0770 -1.8370 314° West 455 524 38,000  Climbing FlightAware ADS-B
Tue 07:58:44 AM 55.1089 -1.9439 314° West 472 543 36,500  Descending FlightAware UK
Tue 07:58:58 AM 55.1190 -1.9790 314° West 454 522 38,000  Climbing FlightAware ADS-B
Tue 07:59:20 AM 55.1426 -2.0616 314° West 472 543 36,500  Descending FlightAware UK
Tue 07:59:38 AM 55.1560 -2.1070 314° West 455 524 38,000  Climbing FlightAware ADS-B
Tue 07:59:56 AM 55.1762 -2.1799 314° West 474 545 36,500  Descending FlightAware UK
Tue 08:00:18 AM 55.1930 -2.2400 314° West 455 524 38,000  Climbing FlightAware ADS-B
Tue 08:00:38 AM 55.2150 -2.3176 314° West 474 545 36,500 -2,368 Descending FlightAware UK
Tue 08:00:56 AM 55.2316 -2.3769 296° West 474 545 36,500 3,600 Level FlightAware UK
Tue 08:01:03 AM 55.2360 -2.3930 296° West 453 521 38,000  Climbing FlightAware ADS-B
Tue 08:01:26 AM 55.2594 -2.4756 296° West 472 543 36,500  Descending FlightAware UK
Tue 08:01:43 AM 55.2710 -2.5160 296° West 453 521 38,000  Climbing FlightAware ADS-B
Tue 08:02:13 AM 55.3012 -2.6342 296° West 472 543 36,500  Descending FlightAware UK
Tue 08:02:28 AM 55.3100 -2.6790 296° West 452 520 38,000  Climbing FlightAware ADS-B
Tue 08:02:43 AM 55.3185 -2.7392 296° West 470 541 36,500  Descending FlightAware UK
Tue 08:03:08 AM 55.3280 -2.8160 296° West 451 519 38,000  Climbing FlightAware ADS-B
Tue 08:03:25 AM 55.3372 -2.8893 296° West 472 543 36,500 -2,571 Descending FlightAware UK
Tue 08:03:43 AM 55.3451 -2.9530 282° West 470 541 36,500 3,913 Level FlightAware UK
Tue 08:03:48 AM 55.3460 -2.9600 282° West 453 521 38,000  Climbing FlightAware ADS-B
Tue 08:04:13 AM 55.3584 -3.0606 282° West 472 543 36,500  Descending FlightAware UK
Tue 08:04:23 AM 55.3600 -3.0760 282° West 454 522 38,000  Climbing FlightAware ADS-B
Tue 08:04:43 AM 55.3715 -3.1685 282° West 474 545 36,500 -2,368 Descending FlightAware UK
Tue 08:05:01 AM 55.3795 -3.2333 282° West 474 545 36,500  Level FlightAware UK
Tue 08:05:25 AM 55.3898 -3.3193 282° West 474 545 36,500  Level FlightAware UK
Tue 08:05:43 AM 55.3977 -3.3841 282° West 472 543 36,500  Level FlightAware UK
Tue 08:06:01 AM 55.4054 -3.4491 282° West 474 545 36,500  Level FlightAware UK
Tue 08:06:19 AM 55.4131 -3.5140 282° West 472 543 36,500 4,091 Level FlightAware UK
Tue 08:06:23 AM 55.4130 -3.5140 282° West 454 522 38,000  Climbing FlightAware ADS-B
Tue 08:06:49 AM 55.4260 -3.6213 282° West 474 545 36,500  Descending FlightAware UK
Tue 08:07:08 AM 55.4310 -3.6670 282° West 453 521 38,000  Climbing FlightAware ADS-B
Tue 08:07:37 AM 55.4461 -3.7948 282° West 472 543 36,500  Descending FlightAware UK
Tue 08:07:43 AM 55.4470 -3.8060 282° West 454 522 38,000  Climbing FlightAware ADS-B
Tue 08:08:07 AM 55.4584 -3.9028 282° West 472 543 36,500  Descending FlightAware UK
Tue 08:08:28 AM 55.4660 -3.9660 282° West 453 521 38,000  Climbing FlightAware ADS-B
Tue 08:08:43 AM 55.4734 -4.0323 282° West 472 543 36,500 -2,727 Descending FlightAware UK
Tue 08:09:01 AM 55.4807 -4.0972 281° West 474 545 36,500 3,600 Level FlightAware UK
Tue 08:09:08 AM 55.4820 -4.1120 281° West 452 520 38,000  Climbing FlightAware ADS-B
Tue 08:09:31 AM 55.4931 -4.2047 281° West 474 545 36,500  Descending FlightAware UK
Tue 08:09:53 AM 55.5000 -4.2650 281° West 452 520 38,000  Climbing FlightAware ADS-B
Tue 08:10:19 AM 55.5124 -4.3781 281° West 474 545 36,500  Descending FlightAware UK
Tue 08:10:38 AM 55.5180 -4.4310 281° West 452 520 38,000  Climbing FlightAware ADS-B
Tue 08:10:55 AM 55.5268 -4.5079 281° West 472 543 36,500 -2,647 Descending FlightAware UK
Tue 08:11:12 AM 55.5337 -4.5721 281° West 472 543 36,500 3,913 Level FlightAware UK
Tue 08:11:18 AM 55.5340 -4.5760 281° West 451 519 38,000  Climbing FlightAware ADS-B
Tue 08:11:42 AM 55.5455 -4.6801 281° West 472 543 36,500  Descending FlightAware UK
Tue 08:11:58 AM 55.5490 -4.7110 281° West 450 518 38,000  Climbing FlightAware ADS-B
Tue 08:12:18 AM 55.5595 -4.8099 281° West 472 543 36,500 -2,368 Descending FlightAware UK
Tue 08:12:36 AM 55.5664 -4.8748 281° West 472 543 36,500 3,600 Level FlightAware UK
Tue 08:12:43 AM 55.5680 -4.8870 281° West 451 519 38,000  Climbing FlightAware ADS-B
Tue 08:13:00 AM 55.5757 -4.9616 281° West 472 543 36,500 -2,571 Descending FlightAware UK
Tue 08:13:18 AM 55.5826 -5.0268 281° West 474 545 36,500  Level FlightAware UK
Tue 08:13:42 AM 55.5915 -5.1138 280° West 472 543 36,500 2,571 Level FlightAware UK
Tue 08:13:53 AM 55.5930 -5.1260 280° West 451 519 38,000  Climbing FlightAware ADS-B
Tue 08:14:12 AM 55.6029 -5.2224 280° West 470 541 36,500 -2,432 Descending FlightAware UK
Tue 08:14:30 AM 55.6096 -5.2876 280° West 472 543 36,500 4,286 Level FlightAware UK
Tue 08:14:33 AM 55.6090 -5.2820 280° West 451 519 38,000  Climbing FlightAware ADS-B
Tue 08:14:48 AM 55.6163 -5.3520 280° West 474 545 36,500 -2,727 Descending FlightAware UK
Tue 08:15:06 AM 55.6230 -5.4180 280° West 474 545 36,500 3,600 Level FlightAware UK
Tue 08:15:13 AM 55.6230 -5.4210 280° West 451 519 38,000  Climbing FlightAware ADS-B
Tue 08:15:30 AM 55.6318 -5.5049 280° West 474 545 36,500 -2,571 Descending FlightAware UK
Tue 08:15:48 AM 55.6370 -5.5703 278° West 470 541 36,500 3,214 Level FlightAware UK
Tue 08:15:58 AM 55.6380 -5.5870 278° West 450 518 38,000  Climbing FlightAware ADS-B
Tue 08:16:18 AM 55.6450 -5.6789 278° West 470 541 36,500 -2,368 Descending FlightAware UK
Tue 08:16:36 AM 55.6499 -5.7445 278° West 472 543 36,500 4,800 Level FlightAware UK
Tue 08:16:38 AM 55.6490 -5.7320 278° West 452 520 38,100 1,000 Climbing FlightAware ADS-B
Tue 08:16:54 AM 55.6549 -5.8103 278° West 472 543 36,800 -1,765 Descending FlightAware UK
Tue 08:17:12 AM 55.6598 -5.8755 278° West 468 539 37,100 3,931 Climbing FlightAware UK
Tue 08:17:23 AM 55.6620 -5.9070 278° West 446 513 38,700 400 Climbing FlightAware ADS-B
Tue 08:17:42 AM 55.6679 -5.9839 278° West 472 543 37,300 -2,108 Descending FlightAware UK
Tue 08:18:00 AM 55.6727 -6.0490 278° West 472 543 37,400 4,571 Climbing FlightAware UK
Tue 08:18:03 AM 55.6720 -6.0410 278° West 448 516 38,900 333 Climbing FlightAware ADS-B
Tue 08:18:18 AM 55.6775 -6.1143 278° West 472 543 37,500 -2,545 Descending FlightAware UK
Tue 08:18:36 AM 55.6824 -6.1797 278° West 474 545 37,500  Level FlightAware UK
Tue 08:18:54 AM 55.6870 -6.2455 277° West 474 545 37,500  Level FlightAware UK
Tue 08:19:12 AM 55.6918 -6.3114 277° West 474 545 37,500  Level FlightAware UK
Tue 08:19:30 AM 55.6964 -6.3774 277° West 474 545 37,500  Level FlightAware UK
Tue 08:19:48 AM 55.7011 -6.4428 277° West 474 545 37,500  Level FlightAware UK
Tue 08:20:06 AM 55.7057 -6.5087 277° West 474 545 37,500  Level FlightAware UK
Tue 08:20:24 AM 55.7103 -6.5746 277° West 474 545 37,500  Level FlightAware UK
Tue 08:20:42 AM 55.7148 -6.6405 277° West 474 545 37,500  Level FlightAware UK
Tue 08:21:00 AM 55.7193 -6.7065 277° West 476 548 37,500  Level FlightAware UK
Tue 08:21:18 AM 55.7239 -6.7726 277° West 474 545 37,500  Level FlightAware UK
Tue 08:21:36 AM 55.7283 -6.8387 277° West 476 548 37,500  Level FlightAware UK
Tue 08:21:54 AM 55.7326 -6.9049 277° West 474 545 37,500  Level FlightAware UK
Tue 08:22:12 AM 55.7370 -6.9712 277° West 474 545 37,500  Level FlightAware UK
Tue 08:22:30 AM 55.7413 -7.0375 277° West 474 545 37,500  Level FlightAware UK
Tue 08:22:48 AM 55.7456 -7.1039 277° West 476 548 37,500  Level FlightAware UK
Tue 08:23:06 AM 55.7499 -7.1703 277° West 476 548 37,500  Level FlightAware UK
Tue 08:23:24 AM 55.7542 -7.2367 277° West 476 548 37,500  Level FlightAware UK
Tue 08:23:42 AM 55.7584 -7.3030 276° West 474 545 37,500  Level FlightAware UK
Tue 08:24:00 AM 55.7627 -7.3693 277° West 474 545 37,500  Level FlightAware UK
Tue 08:24:18 AM 55.7668 -7.4356 276° West 474 545 37,500  Level FlightAware UK
Tue 08:24:36 AM 55.7708 -7.5012 276° West 474 545 37,500  Level FlightAware UK
Tue 08:24:54 AM 55.7748 -7.5675 276° West 472 543 37,500 3,333 Level FlightAware UK
Tue 08:25:03 AM 55.7750 -7.5710 276° West 453 521 39,000  Climbing FlightAware ADS-B
Tue 08:25:18 AM 55.7801 -7.6560 276° West 474 545 37,500 -2,727 Descending FlightAware UK
Tue 08:25:36 AM 55.7841 -7.7225 276° West 474 545 37,500 3,600 Level FlightAware UK
Tue 08:25:43 AM 55.7850 -7.7350 276° West 453 521 39,000  Climbing FlightAware ADS-B
Tue 08:26:00 AM 55.7893 -7.8110 276° West 472 543 37,500 -2,571 Descending FlightAware UK
Tue 08:26:18 AM 55.7932 -7.8775 276° West 474 545 37,500 3,214 Level FlightAware UK
Tue 08:26:28 AM 55.7940 -7.8980 276° West 454 522 39,000  Climbing FlightAware ADS-B
Tue 08:26:48 AM 55.7998 -7.9884 276° West 474 545 37,500 -2,368 Descending FlightAware UK
Tue 08:27:06 AM 55.8035 -8.0550 276° West 474 545 37,500 4,500 Level FlightAware UK
Tue 08:27:08 AM 55.8030 -8.0470 276° West 454 522 39,000  Climbing FlightAware ADS-B
Tue 08:27:24 AM 55.8072 -8.1216 276° West 474 545 37,500 -2,647 Descending FlightAware UK
Tue 08:27:42 AM 55.8109 -8.1883 276° West 474 545 37,500 3,103 Level FlightAware UK
Tue 08:27:53 AM 55.8130 -8.2230 276° West 454 522 39,000  Climbing FlightAware ADS-B
Tue 08:28:12 AM 55.8170 -8.2993 276° West 476 548 37,500 -2,432 Descending FlightAware UK
Tue 08:28:30 AM 55.8207 -8.3659 276° West 476 548 37,500 4,286 Level FlightAware UK
Tue 08:28:33 AM 55.8210 -8.3660 276° West 453 521 39,000  Climbing FlightAware ADS-B
Tue 08:28:48 AM 55.8243 -8.4324 276° West 474 545 37,500 -2,727 Descending FlightAware UK
Tue 08:29:06 AM 55.8278 -8.4988 275° West 474 545 37,500 3,600 Level FlightAware UK
Tue 08:29:13 AM 55.8280 -8.5110 275° West 452 520 39,000  Climbing FlightAware ADS-B
Tue 08:29:30 AM 55.8326 -8.5872 275° West 472 543 37,500 -2,571 Descending FlightAware UK
Tue 08:29:48 AM 55.8360 -8.6534 275° West 472 543 37,500 3,214 Level FlightAware UK
Tue 08:29:58 AM 55.8370 -8.6820 275° West 451 519 39,000  Climbing FlightAware ADS-B
Tue 08:30:18 AM 55.8416 -8.7632 275° West 472 543 37,500 -2,368 Descending FlightAware UK
Tue 08:30:36 AM 55.8450 -8.8295 275° West 472 543 37,500 4,500 Level FlightAware UK
Tue 08:30:38 AM 55.8450 -8.8280 275° West 451 519 39,000  Climbing FlightAware ADS-B
Tue 08:30:54 AM 55.8483 -8.8959 275° West 472 543 37,500 -2,647 Descending FlightAware UK
Tue 08:31:12 AM 55.8515 -8.9622 275° West 472 543 37,500 3,750 Level FlightAware UK
Tue 08:31:18 AM 55.8520 -8.9770 275° West 451 519 39,000 1,765 Climbing FlightAware ADS-B
Tue 08:32:03 AM 55.8600 -9.1430 275° West 451 519 39,000  Level FlightAware ADS-B
Tue 08:32:43 AM 55.8670 -9.2870 275° West 452 520 39,000  Level FlightAware ADS-B
Tue 08:34:08 AM 55.8810 -9.5910 275° West 434 499 39,000  Level FlightAware ADS-B
Tue 08:34:53 AM 55.8880 -9.7480 275° West 435 501 39,000  Level FlightAware ADS-B
Tue 08:35:33 AM 55.8940 -9.8960 274° West 437 503 39,000  Level FlightAware ADS-B
Tue 08:36:13 AM 55.9000 -10.0350 274° West 438 504 39,000  Level FlightAware ADS-B
Tue 08:36:58 AM 55.9060 -10.1950 274° West 437 503 39,000  Level FlightAware ADS-B
Tue 08:37:38 AM 55.9120 -10.3310 275° West 437 503 39,000  Level FlightAware ADS-B
Tue 08:38:23 AM 55.9190 -10.5090 274° West 436 502 39,000  Level FlightAware ADS-B
Tue 08:39:18 AM 55.9260 -10.7040 274° West 436 502 39,000  Level FlightAware ADS-B
Tue 08:39:58 AM 55.9310 -10.8500 274° West 435 501 39,000  Level FlightAware ADS-B
Tue 08:40:43 AM 55.9360 -11.0070 273° West 436 502 39,000  Level FlightAware ADS-B
Tue 08:41:23 AM 55.9410 -11.1540 274° West 436 502 39,000  Level FlightAware ADS-B
Tue 08:42:03 AM 55.9450 -11.2960 273° West 436 502 39,000  Level FlightAware ADS-B
Tue 08:42:48 AM 55.9500 -11.4590 273° West 435 501 39,000  Level FlightAware ADS-B
Tue 08:43:28 AM 55.9550 -11.5990 274° West 435 501 39,000  Level FlightAware ADS-B
Tue 08:44:08 AM 55.9590 -11.7410 273° West 432 497 39,000  Level FlightAware ADS-B
Tue 08:45:33 AM 55.9650 -12.0270 272° West 430 495 39,000  Level FlightAware ADS-B
Tue 08:46:13 AM 55.9670 -12.1480 272° West 430 495 39,000  Level FlightAware ADS-B
Tue 08:46:53 AM 55.9700 -12.2680 273° West 430 495 39,000  Level FlightAware ADS-B
Tue 08:47:43 AM 55.9730 -12.4190 272° West 430 495 39,000  Level FlightAware ADS-B
Tue 08:48:23 AM 55.9750 -12.5400 272° West 430 495 39,000  Level FlightAware ADS-B
Tue 08:49:03 AM 55.9770 -12.6610 272° West 430 495 39,000  Level FlightAware ADS-B
Tue 08:49:43 AM 55.9800 -12.7820 273° West 430 495 39,000  Level FlightAware ADS-B
Tue 08:50:23 AM 55.9820 -12.9030 272° West 430 495 39,000  Level FlightAware ADS-B
Tue 08:51:13 AM 55.9850 -13.0540 272° West 430 495 39,000  Level FlightAware ADS-B
Tue 08:51:53 AM 55.9870 -13.1750 272° West 430 495 39,000  Level FlightAware ADS-B
Tue 08:52:33 AM 55.9900 -13.2950 273° West 430 495 39,000  Level FlightAware ADS-B
Tue 08:53:13 AM 55.9920 -13.4160 272° West 430 495 39,000  Level FlightAware ADS-B
Tue 08:53:53 AM 55.9940 -13.5370 272° West 430 495 39,000  Level FlightAware ADS-B
Tue 08:54:43 AM 55.9970 -13.6880 272° West 430 495 39,000  Level FlightAware ADS-B
Tue 08:57:00 AM 56.0183 -14.1825 275° West  Level Estimated
Tue 08:58:00 AM 56.0270 -14.3993 274° West  Level Estimated
Tue 08:59:00 AM 56.0353 -14.6161 274° West  Level Estimated
Tue 09:00:00 AM 56.0432 -14.8327 274° West  Level Estimated
Tue 09:01:00 AM 56.0507 -15.0497 274° West  Level Estimated
Tue 09:02:00 AM 56.0579 -15.2668 273° West  Level Estimated
Tue 09:03:00 AM 56.0647 -15.4840 273° West  Level Estimated
Tue 09:04:00 AM 56.0711 -15.7013 273° West  Level Estimated
Tue 09:05:00 AM 56.0771 -15.9186 273° West  Level Estimated
Tue 09:06:00 AM 56.0828 -16.1360 273° West  Level Estimated
Tue 09:07:00 AM 56.0880 -16.3535 273° West  Level Estimated
Tue 09:08:00 AM 56.0929 -16.5710 272° West  Level Estimated
Tue 09:09:00 AM 56.0974 -16.7885 272° West  Level Estimated
Tue 09:10:00 AM 56.1015 -17.0062 272° West  Level Estimated
Tue 09:11:00 AM 56.1053 -17.2238 272° West  Level Estimated
Tue 09:12:00 AM 56.1086 -17.4415 272° West  Level Estimated
Tue 09:13:00 AM 56.1116 -17.6593 271° West  Level Estimated
Tue 09:14:00 AM 56.1142 -17.8771 271° West  Level Estimated
Tue 09:15:00 AM 56.1163 -18.0949 271° West  Level Estimated
Tue 09:16:00 AM 56.1182 -18.3127 271° West  Level Estimated
Tue 09:17:00 AM 56.1196 -18.5305 271° West  Level Estimated
Tue 09:18:00 AM 56.1207 -18.7484 271° West  Level Estimated
Tue 09:19:00 AM 56.1213 -18.9662 270° West  Level Estimated
Tue 09:20:00 AM 56.1216 -19.1841 270° West  Level Estimated
Tue 09:21:00 AM 56.1215 -19.4020 270° West  Level Estimated
Tue 09:22:00 AM 56.1210 -19.6199 270° West  Level Estimated
Tue 09:23:00 AM 56.1202 -19.8377 270° West  Level Estimated
Tue 09:23:00 AM 57.0000 -20.0000 274° West 466 536 39,000  Level ETMS Enhanced Traffic Management System
Tue 09:24:00 AM 56.1189 -20.0556 269° West  Level Estimated
Tue 09:25:00 AM 56.1173 -20.2734 269° West  Level Estimated
Tue 09:26:00 AM 56.1152 -20.4912 269° West  Level Estimated
Tue 09:27:00 AM 56.1129 -20.7090 269° West  Level Estimated
Tue 09:28:00 AM 56.1101 -20.9268 269° West  Level Estimated
Tue 09:29:00 AM 57.0554 -21.6633 273° West 466 536 39,000  Level FlightAware Transoceanic
Tue 09:30:00 AM 57.0615 -21.9013 273° West 466 536 39,000  Level FlightAware Transoceanic
Tue 09:31:00 AM 57.0671 -22.1394 272° West 466 536 39,000  Level FlightAware Transoceanic
Tue 09:32:00 AM 57.0723 -22.3776 272° West 466 536 39,000  Level FlightAware Transoceanic
Tue 09:33:00 AM 57.0771 -22.6157 272° West 466 536 39,000  Level FlightAware Transoceanic
Tue 09:34:00 AM 57.0814 -22.8540 272° West 466 536 39,000  Level FlightAware Transoceanic
Tue 09:35:00 AM 57.0852 -23.0923 272° West 466 536 39,000  Level FlightAware Transoceanic
Tue 09:36:00 AM 57.0886 -23.3307 271° West 466 536 39,000  Level FlightAware Transoceanic
Tue 09:37:00 AM 57.0915 -23.5691 271° West 466 536 39,000  Level FlightAware Transoceanic
Tue 09:38:00 AM 57.0940 -23.8075 271° West 466 536 39,000  Level FlightAware Transoceanic
Tue 09:39:00 AM 57.0961 -24.0460 271° West 466 536 39,000  Level FlightAware Transoceanic
Tue 09:40:00 AM 57.0977 -24.2845 271° West 466 536 39,000  Level FlightAware Transoceanic
Tue 09:41:00 AM 57.0988 -24.5230 270° West 466 536 39,000  Level FlightAware Transoceanic
Tue 09:42:00 AM 57.0995 -24.7615 270° West 466 536 39,000  Level FlightAware Transoceanic
Tue 09:43:00 AM 57.0997 -25.0000 270° West 466 536 39,000  Level FlightAware Transoceanic
Tue 09:44:00 AM 57.0995 -25.2385 270° West 466 536 39,000  Level FlightAware Transoceanic
Tue 09:45:00 AM 57.0988 -25.4770 270° West 466 536 39,000  Level FlightAware Transoceanic
Tue 09:46:00 AM 57.0977 -25.7155 269° West 466 536 39,000  Level FlightAware Transoceanic
Tue 09:47:00 AM 57.0961 -25.9540 269° West 466 536 39,000  Level FlightAware Transoceanic
Tue 09:48:00 AM 57.0940 -26.1925 269° West 466 536 39,000  Level FlightAware Transoceanic
Tue 09:49:00 AM 57.0915 -26.4309 269° West 466 536 39,000  Level FlightAware Transoceanic
Tue 09:50:00 AM 57.0886 -26.6693 269° West 466 536 39,000  Level FlightAware Transoceanic
Tue 09:51:00 AM 57.0852 -26.9077 268° West 466 536 39,000  Level FlightAware Transoceanic
Tue 09:52:00 AM 57.0814 -27.1460 268° West 466 536 39,000  Level FlightAware Transoceanic
Tue 09:53:00 AM 57.0771 -27.3843 268° West 466 536 39,000  Level FlightAware Transoceanic
Tue 09:54:00 AM 57.0723 -27.6224 268° West 466 536 39,000  Level FlightAware Transoceanic
Tue 09:55:00 AM 57.0671 -27.8606 268° West 466 536 39,000  Level FlightAware Transoceanic
Tue 09:56:00 AM 57.0615 -28.0987 267° West 466 536 39,000  Level FlightAware Transoceanic
Tue 09:57:00 AM 57.0554 -28.3367 267° West 466 536 39,000  Level FlightAware Transoceanic
Tue 09:58:00 AM 57.0488 -28.5746 267° West 466 536 39,000  Level FlightAware Transoceanic
Tue 09:59:00 AM 57.0418 -28.8124 267° West 466 536 39,000  Level FlightAware Transoceanic
Tue 10:00:00 AM 57.0343 -29.0501 267° West 466 536 39,000  Level FlightAware Transoceanic
Tue 10:01:00 AM 57.0264 -29.2878 266° West 466 536 39,000  Level FlightAware Transoceanic
Tue 10:02:00 AM 57.0181 -29.5253 266° West 466 536 39,000  Level FlightAware Transoceanic
Tue 10:03:00 AM 57.0093 -29.7627 266° West 466 536 39,000  Level FlightAware Transoceanic
Tue 10:04:00 AM 57.0006 -29.9851 266° West  Level FlightAware Approximate
Tue 10:05:00 AM 56.9916 -30.2075 266° West  Level FlightAware Approximate
Tue 10:06:00 AM 56.9883 -30.1920 264° West  Level FlightAware Approximate
Tue 10:07:00 AM 56.9745 -30.4134 264° West  Level FlightAware Approximate
Tue 10:08:00 AM 56.9603 -30.6347 263° West  Level FlightAware Approximate
Tue 10:09:00 AM 56.9458 -30.8558 263° West  Level FlightAware Approximate
Tue 10:10:00 AM 56.9308 -31.0767 263° West  Level FlightAware Approximate
Tue 10:11:00 AM 56.9154 -31.2975 263° West  Level FlightAware Approximate
Tue 10:12:00 AM 56.8997 -31.5180 263° West  Level FlightAware Approximate
Tue 10:13:00 AM 56.8835 -31.7384 262° West  Level FlightAware Approximate
Tue 10:14:00 AM 56.8670 -31.9586 262° West  Level FlightAware Approximate
Tue 10:15:00 AM 56.8501 -32.1786 262° West  Level FlightAware Approximate
Tue 10:16:00 AM 56.8328 -32.3983 262° West  Level FlightAware Approximate
Tue 10:17:00 AM 56.8151 -32.6179 262° West  Level FlightAware Approximate
Tue 10:18:00 AM 56.7970 -32.8373 262° West  Level FlightAware Approximate
Tue 10:19:00 AM 56.7785 -33.0564 261° West  Level FlightAware Approximate
Tue 10:20:00 AM 56.7597 -33.2754 261° West  Level FlightAware Approximate
Tue 10:21:00 AM 56.7405 -33.4941 261° West  Level FlightAware Approximate
Tue 10:22:00 AM 56.7209 -33.7126 261° West  Level FlightAware Approximate
Tue 10:23:00 AM 56.7009 -33.9308 261° West  Level FlightAware Approximate
Tue 10:24:00 AM 56.6805 -34.1488 260° West  Level FlightAware Approximate
Tue 10:25:00 AM 56.6598 -34.3666 260° West  Level FlightAware Approximate
Tue 10:26:00 AM 56.6386 -34.5842 260° West  Level FlightAware Approximate
Tue 10:27:00 AM 56.6171 -34.8015 260° West  Level FlightAware Approximate
Tue 10:28:00 AM 56.5952 -35.0185 260° West  Level FlightAware Approximate
Tue 10:29:00 AM 56.5729 -35.2353 260° West  Level FlightAware Approximate
Tue 10:30:00 AM 56.5503 -35.4519 259° West  Level FlightAware Approximate
Tue 10:31:00 AM 56.5273 -35.6681 259° West  Level FlightAware Approximate
Tue 10:32:00 AM 56.5044 -35.8843 259° West  Level FlightAware Approximate
Tue 10:33:00 AM 56.4816 -36.1004 259° West  Level FlightAware Approximate
Tue 10:34:00 AM 56.4585 -36.3162 259° West  Level FlightAware Approximate
Tue 10:35:00 AM 56.4349 -36.5318 259° West  Level FlightAware Approximate
Tue 10:36:00 AM 56.4110 -36.7471 259° West  Level FlightAware Approximate
Tue 10:37:00 AM 56.3867 -36.9622 259° West  Level FlightAware Approximate
Tue 10:38:00 AM 56.3621 -37.1769 258° West  Level FlightAware Approximate
Tue 10:39:00 AM 56.3371 -37.3914 258° West  Level FlightAware Approximate
Tue 10:40:00 AM 56.3117 -37.6056 258° West  Level FlightAware Approximate
Tue 10:41:00 AM 56.2859 -37.8195 258° West  Level FlightAware Approximate
Tue 10:42:00 AM 56.2598 -38.0331 258° West  Level FlightAware Approximate
Tue 10:43:00 AM 56.2333 -38.2464 257° West  Level FlightAware Approximate
Tue 10:44:00 AM 56.2064 -38.4594 257° West  Level FlightAware Approximate
Tue 10:45:00 AM 56.1792 -38.6721 257° West  Level FlightAware Approximate
Tue 10:46:00 AM 56.1516 -38.8845 257° West  Level FlightAware Approximate
Tue 10:47:00 AM 56.1236 -39.0967 257° West  Level FlightAware Approximate
Tue 10:48:00 AM 56.0953 -39.3085 257° West  Level FlightAware Approximate
Tue 10:49:00 AM 56.0666 -39.5200 256° West  Level FlightAware Approximate
Tue 10:50:00 AM 56.0376 -39.7311 256° West  Level FlightAware Approximate
Tue 10:51:00 AM 56.0082 -39.9420 256° West  Level FlightAware Approximate
Tue 10:52:00 AM 55.9645 -40.1439 246° West  Level FlightAware Approximate
Tue 10:53:00 AM 55.9153 -40.3421 246° West  Level FlightAware Approximate
Tue 10:54:00 AM 55.8657 -40.5399 246° West  Level FlightAware Approximate
Tue 10:55:00 AM 55.8158 -40.7371 246° West  Level FlightAware Approximate
Tue 10:56:00 AM 55.7657 -40.9338 246° West  Level FlightAware Approximate
Tue 10:57:00 AM 55.7151 -41.1300 246° West  Level FlightAware Approximate
Tue 10:58:00 AM 55.6644 -41.3257 246° West  Level FlightAware Approximate
Tue 10:59:00 AM 55.6144 -41.5219 246° West  Level FlightAware Approximate
Tue 11:00:00 AM 55.5642 -41.7175 246° West  Level FlightAware Approximate
Tue 11:01:00 AM 55.5136 -41.9126 245° Southwest  Level FlightAware Approximate
Tue 11:02:00 AM 55.4627 -42.1073 245° Southwest  Level FlightAware Approximate
Tue 11:03:00 AM 55.4115 -42.3014 245° Southwest  Level FlightAware Approximate
Tue 11:04:00 AM 55.3600 -42.4950 245° Southwest  Level FlightAware Approximate
Tue 11:05:00 AM 55.3082 -42.6882 245° Southwest  Level FlightAware Approximate
Tue 11:06:00 AM 55.2561 -42.8808 245° Southwest  Level FlightAware Approximate
Tue 11:07:00 AM 55.2037 -43.0729 245° Southwest  Level FlightAware Approximate
Tue 11:08:00 AM 55.1510 -43.2645 244° Southwest  Level FlightAware Approximate
Tue 11:09:00 AM 55.0980 -43.4556 244° Southwest  Level FlightAware Approximate
Tue 11:10:00 AM 55.0447 -43.6462 244° Southwest  Level FlightAware Approximate
Tue 11:11:00 AM 54.9911 -43.8363 244° Southwest  Level FlightAware Approximate
Tue 11:12:00 AM 54.9372 -44.0258 244° Southwest  Level FlightAware Approximate
Tue 11:13:00 AM 54.8830 -44.2149 244° Southwest  Level FlightAware Approximate
Tue 11:14:00 AM 54.8285 -44.4035 243° Southwest  Level FlightAware Approximate
Tue 11:15:00 AM 54.7737 -44.5915 243° Southwest  Level FlightAware Approximate
Tue 11:16:00 AM 54.7186 -44.7791 243° Southwest  Level FlightAware Approximate
Tue 11:17:00 AM 54.6633 -44.9661 243° Southwest  Level FlightAware Approximate
Tue 11:18:00 AM 54.6076 -45.1526 243° Southwest  Level FlightAware Approximate
Tue 11:19:00 AM 54.5517 -45.3386 243° Southwest  Level FlightAware Approximate
Tue 11:20:00 AM 54.4955 -45.5241 243° Southwest  Level FlightAware Approximate
Tue 11:21:00 AM 54.4390 -45.7091 242° Southwest  Level FlightAware Approximate
Tue 11:22:00 AM 54.3822 -45.8936 242° Southwest  Level FlightAware Approximate
Tue 11:23:00 AM 54.3251 -46.0775 242° Southwest  Level FlightAware Approximate
Tue 11:24:00 AM 54.2678 -46.2610 242° Southwest  Level FlightAware Approximate
Tue 11:25:00 AM 54.2102 -46.4439 242° Southwest  Level FlightAware Approximate
Tue 11:26:00 AM 54.1523 -46.6264 242° Southwest  Level FlightAware Approximate
Tue 11:27:00 AM 54.0941 -46.8083 241° Southwest  Level FlightAware Approximate
Tue 11:28:00 AM 54.0356 -46.9897 241° Southwest  Level FlightAware Approximate
Tue 11:29:00 AM 53.9769 -47.1706 241° Southwest  Level FlightAware Approximate
Tue 11:30:00 AM 53.9179 -47.3510 241° Southwest  Level FlightAware Approximate
Tue 11:31:00 AM 53.8587 -47.5309 241° Southwest  Level FlightAware Approximate
Tue 11:32:00 AM 53.7992 -47.7102 241° Southwest  Level FlightAware Approximate
Tue 11:33:00 AM 53.7394 -47.8891 241° Southwest  Level FlightAware Approximate
Tue 11:34:00 AM 53.6793 -48.0674 240° Southwest  Level FlightAware Approximate
Tue 11:35:00 AM 53.6190 -48.2453 240° Southwest  Level FlightAware Approximate
Tue 11:36:00 AM 53.5584 -48.4226 240° Southwest  Level FlightAware Approximate
Tue 11:37:00 AM 53.4976 -48.5994 240° Southwest  Level FlightAware Approximate
Tue 11:38:00 AM 53.4365 -48.7757 240° Southwest  Level FlightAware Approximate
Tue 11:39:00 AM 53.3751 -48.9516 240° Southwest  Level FlightAware Approximate
Tue 11:40:00 AM 53.3135 -49.1269 240° Southwest  Level FlightAware Approximate
Tue 11:41:00 AM 53.2516 -49.3017 239° Southwest  Level FlightAware Approximate
Tue 11:41:44 AM 52.9333 -50.3167 248° West 310 357 39,000  Level Gander Center
Tue 11:42:00 AM 53.1895 -49.4759 239° Southwest  Level FlightAware Approximate
Tue 11:42:44 AM 52.8833 -50.5000 246° West 450 518 39,000  Level Gander Center
Tue 11:43:00 AM 53.1271 -49.6497 239° Southwest  Level FlightAware Approximate
Tue 11:43:44 AM 52.8667 -50.6500 260° West 430 495 39,000  Level Gander Center
Tue 11:44:00 AM 53.0644 -49.8230 239° Southwest  Level FlightAware Approximate
Tue 11:44:44 AM 52.8167 -50.8500 248° West 430 495 39,000  Level Gander Center
Tue 11:45:00 AM 53.0015 -49.9958 239° Southwest  Level FlightAware Approximate
Tue 11:45:44 AM 52.7667 -51.0333 246° West 430 495 39,000  Level Gander Center
Tue 11:46:00 AM 52.9567 -50.1831 249° West  Level FlightAware Approximate
Tue 11:46:44 AM 52.7333 -51.2000 252° West 430 495 39,000  Level Gander Center
Tue 11:47:00 AM 52.9120 -50.3705 248° West  Level FlightAware Approximate
Tue 11:47:44 AM 52.6833 -51.4167 249° West 430 495 39,000  Level Gander Center
Tue 11:48:44 AM 52.6500 -51.5833 252° West 440 506 39,000  Level Gander Center
Tue 11:49:44 AM 52.6000 -51.8167 251° West 440 506 39,000  Level Gander Center
Tue 11:50:44 AM 52.5667 -52.0000 253° West 440 506 39,000  Level Gander Center
Tue 11:51:44 AM 52.5167 -52.2000 248° West 440 506 39,000  Level Gander Center
Tue 11:52:44 AM 52.4833 -52.4000 255° West 440 506 39,000  Level Gander Center
Tue 11:53:37 AM 52.4333 -52.5500 241° Southwest 440 506 39,000  Level Gander Center
Tue 11:54:37 AM 52.3833 -52.7500 248° West 440 506 39,000  Level Gander Center
Tue 11:55:37 AM 52.3500 -52.9167 252° West 440 506 39,000  Level Gander Center
Tue 11:56:44 AM 52.3000 -53.1167 248° West 430 495 39,000  Level Gander Center
Tue 11:57:37 AM 52.2333 -53.2667 234° Southwest 440 506 39,000  Level Gander Center
Tue 11:58:37 AM 52.1833 -53.4500 246° West 440 506 39,000 250 Level Gander Center
Tue 11:59:37 AM 52.1167 -53.6167 237° Southwest 440 506 39,500 500 Climbing Gander Center
Tue 12:00:37 PM 52.0500 -53.8000 239° Southwest 450 518 40,000 250 Climbing Gander Center
Tue 12:01:37 PM 51.9833 -53.9667 237° Southwest 450 518 40,000  Level Gander Center
Tue 12:02:37 PM 51.9333 -54.1500 246° West 450 518 40,000  Level Gander Center
Tue 12:03:37 PM 51.8500 -54.3167 231° Southwest 440 506 40,000  Level Gander Center
Tue 12:04:37 PM 51.8000 -54.4833 244° Southwest 450 518 40,000  Level Gander Center
Tue 12:05:37 PM 51.7333 -54.6667 240° Southwest 450 518 40,000  Level Gander Center
Tue 12:06:37 PM 51.6667 -54.8333 237° Southwest 450 518 40,000  Level Gander Center
Tue 12:07:37 PM 51.6000 -55.0000 237° Southwest 450 518 40,000  Level Gander Center
Tue 12:08:37 PM 51.5333 -55.1833 240° Southwest 450 518 40,000  Level Gander Center
Tue 12:09:37 PM 51.4667 -55.3500 237° Southwest 450 518 40,000  Level Gander Center
Tue 12:10:37 PM 51.4000 -55.5167 237° Southwest 450 518 40,000  Level Gander Center
Tue 12:11:37 PM 51.3333 -55.6833 237° Southwest 450 518 40,000  Level Gander Center
Tue 12:12:37 PM 51.2667 -55.8500 237° Southwest 450 518 40,000  Level Gander Center
Tue 12:13:37 PM 51.2000 -56.0167 237° Southwest 450 518 40,000  Level Gander Center
Tue 12:14:37 PM 51.1333 -56.1833 238° Southwest 450 518 40,000  Level Gander Center
Tue 12:15:37 PM 51.0667 -56.3500 238° Southwest 440 506 40,000  Level Gander Center
Tue 12:16:37 PM 51.0000 -56.5167 238° Southwest 450 518 40,000  Level Gander Center
Tue 12:17:37 PM 50.9333 -56.6667 235° Southwest 450 518 40,000  Level Gander Center
Tue 12:18:37 PM 50.8667 -56.8500 240° Southwest 440 506 40,000  Level Gander Center
Tue 12:19:29 PM 50.8167 -56.9667 236° Southwest 440 506 40,000  Level Moncton Center
Tue 12:19:44 PM 50.8000 -57.0167 242° Southwest 430 495 40,000  Level Gander Center
Tue 12:20:29 PM 50.7500 -57.1500 239° Southwest 430 495 40,000  Level Moncton Center
Tue 12:21:29 PM 50.6667 -57.3167 232° Southwest 440 506 40,000  Level Moncton Center
Tue 12:22:29 PM 50.6167 -57.4500 239° Southwest 440 506 40,000  Level Moncton Center
Tue 12:22:44 PM 50.6000 -57.5167 249° West 430 495 40,000  Level Gander Center
Tue 12:23:44 PM 50.5333 -57.6500 232° Southwest 430 495 40,000  Level Gander Center
Tue 12:24:44 PM 50.4500 -57.8167 232° Southwest 430 495 40,000  Level Gander Center
Tue 12:25:44 PM 50.3833 -57.9833 238° Southwest 430 495 40,000  Level Gander Center
Tue 12:26:44 PM 50.3333 -58.1333 242° Southwest 430 495 40,000  Level Gander Center
Tue 12:27:28 PM 50.2667 -58.2333 224° Southwest 430 495 40,000  Level Moncton Center
Tue 12:28:28 PM 50.2167 -58.4000 245° Southwest 430 495 40,000  Level Moncton Center
Tue 12:29:28 PM 50.1333 -58.5500 229° Southwest 430 495 40,000  Level Moncton Center
Tue 12:29:44 PM 50.1167 -58.6000 243° Southwest 430 495 40,000  Level Gander Center
Tue 12:30:28 PM 50.0667 -58.7000 232° Southwest 440 506 40,000  Level Moncton Center
Tue 12:31:28 PM 50.0000 -58.8667 238° Southwest 440 506 40,000  Level Moncton Center
Tue 12:31:44 PM 49.9833 -58.9167 243° Southwest 440 506 40,000  Level Gander Center
Tue 12:32:44 PM 49.9167 -59.0667 235° Southwest 440 506 40,000  Level Gander Center
Tue 12:33:28 PM 49.8667 -59.1667 232° Southwest 430 495 40,000  Level Moncton Center
Tue 12:33:44 PM 49.8500 -59.2000 232° Southwest 430 495 40,000  Level Gander Center
Tue 12:34:44 PM 49.7667 -59.3667 232° Southwest 430 495 40,000  Level Gander Center
Tue 12:35:28 PM 49.7167 -59.4667 232° Southwest 430 495 40,000  Level Moncton Center
Tue 12:36:28 PM 49.6667 -59.6333 245° Southwest 430 495 40,000  Level Moncton Center
Tue 12:37:28 PM 49.5833 -59.7667 226° Southwest 430 495 40,000  Level Moncton Center
Tue 12:37:44 PM 49.5667 -59.8167 243° Southwest 430 495 40,000  Level Gander Center
Tue 12:38:44 PM 49.5000 -59.9667 236° Southwest 430 495 40,000  Level Gander Center
Tue 12:39:44 PM 49.4333 -60.1333 238° Southwest 430 495 40,000  Level Gander Center
Tue 12:40:28 PM 49.3833 -60.2333 232° Southwest 430 495 40,000  Level Moncton Center
Tue 12:40:44 PM 49.3667 -60.2833 243° Southwest 430 495 40,000  Level Gander Center
Tue 12:41:44 PM 49.2833 -60.4333 230° Southwest 440 506 40,000  Level Gander Center
Tue 12:42:44 PM 49.2167 -60.5667 233° Southwest 430 495 40,000  Level Gander Center
Tue 12:43:28 PM 49.1667 -60.6833 237° Southwest 430 495 40,000  Level Moncton Center
Tue 12:44:28 PM 49.0833 -60.8500 233° Southwest 430 495 40,000  Level Moncton Center
Tue 12:44:44 PM 49.0667 -60.8667 213° Southwest 430 495 40,000  Level Gander Center
Tue 12:45:28 PM 49.0167 -60.9833 237° Southwest 440 506 40,000  Level Moncton Center
Tue 12:46:28 PM 48.9500 -61.1333 236° Southwest 430 495 40,000  Level Moncton Center
Tue 12:47:28 PM 48.8833 -61.2667 233° Southwest 430 495 40,000  Level Moncton Center
Tue 12:47:44 PM 48.8500 -61.3333 233° Southwest 430 495 40,000  Level Gander Center
Tue 12:48:28 PM 48.8000 -61.4167 228° Southwest 440 506 40,000  Level Moncton Center
Tue 12:49:28 PM 48.7333 -61.5833 239° Southwest 440 506 40,000  Level Moncton Center
Tue 12:50:28 PM 48.6500 -61.7167 227° Southwest 440 506 40,000  Level Moncton Center
Tue 12:50:44 PM 48.6333 -61.7667 243° Southwest 440 506 40,000  Level Gander Center
Tue 12:51:28 PM 48.5833 -61.8667 233° Southwest 440 506 40,000  Level Moncton Center
Tue 12:51:44 PM 48.5667 -61.9167 243° Southwest 440 506 40,000  Level Gander Center
Tue 12:52:44 PM 48.5000 -62.0667 236° Southwest 440 506 40,000  Level Gander Center
Tue 12:53:28 PM 48.4500 -62.1500 228° Southwest 440 506 40,000  Level Moncton Center
Tue 12:54:28 PM 48.3667 -62.3000 230° Southwest 440 506 40,000  Level Moncton Center
Tue 12:55:28 PM 48.2833 -62.4667 233° Southwest 440 506 40,000  Level Moncton Center
Tue 12:56:28 PM 48.2167 -62.6167 236° Southwest 440 506 40,000  Level Moncton Center
Tue 12:57:28 PM 48.1333 -62.7333 223° Southwest 440 506 40,000  Level Moncton Center
Tue 12:58:28 PM 48.0667 -62.9000 239° Southwest 430 495 40,000  Level Moncton Center
Tue 12:59:28 PM 48.0000 -63.0167 230° Southwest 440 506 40,000  Level Moncton Center
Tue 01:00:28 PM 47.9167 -63.1667 230° Southwest 430 495 40,000  Level Moncton Center
Tue 01:01:28 PM 47.8500 -63.3167 237° Southwest 430 495 40,000  Level Moncton Center
Tue 01:02:28 PM 47.7833 -63.4500 233° Southwest 430 495 40,000  Level Moncton Center
Tue 01:03:28 PM 47.7000 -63.6000 230° Southwest 430 495 40,000  Level Moncton Center
Tue 01:04:28 PM 47.6333 -63.7333 233° Southwest 430 495 40,000  Level Moncton Center
Tue 01:05:28 PM 47.5500 -63.8833 231° Southwest 430 495 40,000  Level Moncton Center
Tue 01:06:28 PM 47.4667 -64.0333 231° Southwest 430 495 40,000  Level Moncton Center
Tue 01:07:28 PM 47.4000 -64.1667 234° Southwest 430 495 40,000  Level Moncton Center
Tue 01:08:28 PM 47.3167 -64.3000 227° Southwest 430 495 40,000  Level Moncton Center
Tue 01:09:28 PM 47.2500 -64.4500 237° Southwest 430 495 40,000  Level Moncton Center
Tue 01:10:28 PM 47.1667 -64.5667 224° Southwest 430 495 40,000  Level Moncton Center
Tue 01:11:28 PM 47.1000 -64.7167 237° Southwest 430 495 40,000  Level Moncton Center
Tue 01:12:28 PM 47.0167 -64.8333 224° Southwest 430 495 40,000  Level Moncton Center
Tue 01:13:28 PM 46.9500 -64.9833 237° Southwest 430 495 40,000  Level Moncton Center
Tue 01:14:28 PM 46.8667 -65.1333 231° Southwest 430 495 40,000  Level Moncton Center
Tue 01:15:28 PM 46.8000 -65.2500 230° Southwest 430 495 40,000  Level Moncton Center
Tue 01:16:28 PM 46.7000 -65.4000 226° Southwest 440 506 40,000  Level Moncton Center
Tue 01:17:28 PM 46.6333 -65.5167 230° Southwest 440 506 40,000  Level Moncton Center
Tue 01:18:28 PM 46.5500 -65.6667 231° Southwest 430 495 40,000  Level Moncton Center
Tue 01:24:33 PM 46.0960 -66.4870 231° Southwest 436 502 40,000  Level FlightAware ADS-B
Tue 01:25:13 PM 46.0460 -66.5720 230° Southwest 435 501 40,000  Level FlightAware ADS-B
Tue 01:25:53 PM 45.9910 -66.6640 229° Southwest 435 501 40,000  Level FlightAware ADS-B
Tue 01:26:38 PM 45.9320 -66.7640 230° Southwest 441 507 40,000  Level FlightAware ADS-B
Tue 01:27:18 PM 45.8780 -66.8540 229° Southwest 441 507 40,000  Level FlightAware ADS-B
Tue 01:27:58 PM 45.8280 -66.9380 230° Southwest 440 506 40,000  Level FlightAware ADS-B
Tue 01:28:43 PM 45.7660 -67.0410 229° Southwest 441 507 40,000  Level FlightAware ADS-B
Tue 01:29:23 PM 45.7120 -67.1300 229° Southwest 443 510 40,000  Level FlightAware ADS-B
Tue 01:30:08 PM 45.6520 -67.2290 229° Southwest 445 512 40,000  Level FlightAware ADS-B
Tue 01:30:48 PM 45.5980 -67.3180 229° Southwest 445 512 40,000  Level FlightAware ADS-B
Tue 01:31:28 PM 45.5440 -67.4060 229° Southwest 446 513 40,000  Level FlightAware ADS-B
Tue 01:32:13 PM 45.4820 -67.5070 229° Southwest 446 513 40,000  Level FlightAware ADS-B
Tue 01:32:53 PM 45.4290 -67.5940 229° Southwest 445 512 40,000  Level FlightAware ADS-B
Tue 01:33:33 PM 45.3740 -67.6840 229° Southwest 446 513 40,000  Level FlightAware ADS-B
Tue 01:34:18 PM 45.3130 -67.7820 229° Southwest 442 509 40,000  Level FlightAware ADS-B
Tue 01:35:03 PM 45.2520 -67.8770 228° Southwest 442 509 40,000  Level FlightAware ADS-B
Tue 01:35:43 PM 45.1950 -67.9670 228° Southwest 438 504 40,000  Level FlightAware ADS-B
Tue 01:36:23 PM 45.1410 -68.0520 228° Southwest 438 504 40,000  Level FlightAware ADS-B
Tue 01:37:08 PM 45.0780 -68.1500 228° Southwest 439 505 40,000  Level FlightAware ADS-B
Tue 01:37:48 PM 45.0230 -68.2350 228° Southwest 442 509 40,000  Level FlightAware ADS-B
Tue 01:38:28 PM 44.9670 -68.3230 228° Southwest 450 518 40,000  Level FlightAware ADS-B
Tue 01:39:08 PM 44.9140 -68.4040 227° Southwest 450 518 40,000  Level FlightAware ADS-B
Tue 01:39:53 PM 44.8430 -68.5140 228° Southwest 453 521 40,000  Level FlightAware ADS-B
Tue 01:40:38 PM 44.7810 -68.6090 227° Southwest 454 522 40,000  Level FlightAware ADS-B
Tue 01:41:18 PM 44.7230 -68.6970 227° Southwest 449 517 40,000  Level FlightAware ADS-B
Tue 01:41:58 PM 44.6670 -68.7840 228° Southwest 449 517 40,000  Level FlightAware ADS-B
Tue 01:42:43 PM 44.6030 -68.8810 227° Southwest 449 517 40,000  Level FlightAware ADS-B
Tue 01:43:23 PM 44.5490 -68.9630 227° Southwest 449 517 40,000  Level FlightAware ADS-B
Tue 01:44:08 PM 44.4880 -69.0550 227° Southwest 450 518 40,000  Level FlightAware ADS-B
Tue 01:44:48 PM 44.4300 -69.1430 227° Southwest 450 518 40,000  Level FlightAware ADS-B
Tue 01:45:28 PM 44.3750 -69.2260 227° Southwest 452 520 40,000  Level FlightAware ADS-B
Tue 01:46:13 PM 44.3060 -69.3280 227° Southwest 453 521 40,000  Level FlightAware ADS-B
Tue 01:46:53 PM 44.2490 -69.4140 227° Southwest 451 519 40,000  Level FlightAware ADS-B
Tue 01:47:38 PM 44.1860 -69.5070 227° Southwest 449 517 40,000  Level FlightAware ADS-B
Tue 01:48:13 PM 44.1360 -69.5820 227° Southwest 449 517 40,000  Level FlightAware ADS-B
Tue 01:49:03 PM 44.0650 -69.6860 226° Southwest 450 518 40,000  Level FlightAware ADS-B
Tue 01:49:43 PM 44.0060 -69.7730 227° Southwest 452 520 40,000  Level FlightAware ADS-B
Tue 01:50:23 PM 43.9510 -69.8540 227° Southwest 452 520 40,000  Level FlightAware ADS-B
Tue 01:51:08 PM 43.8860 -69.9490 227° Southwest 451 519 40,000  Level FlightAware ADS-B
Tue 01:51:48 PM 43.8290 -70.0320 226° Southwest 449 517 40,000  Level FlightAware ADS-B
Tue 01:52:28 PM 43.7710 -70.1160 226° Southwest 451 519 40,000  Level FlightAware ADS-B
Tue 01:53:13 PM 43.7060 -70.2110 227° Southwest 449 517 40,000  Level FlightAware ADS-B
Tue 01:53:53 PM 43.6490 -70.2930 226° Southwest 449 517 40,000  Level FlightAware ADS-B
Tue 01:54:38 PM 43.5850 -70.3860 226° Southwest 453 521 40,000  Level FlightAware ADS-B
Tue 01:55:18 PM 43.5280 -70.4680 226° Southwest 451 519 40,000  Level FlightAware ADS-B
Tue 01:55:58 PM 43.4690 -70.5510 226° Southwest 450 518 40,000  Level FlightAware ADS-B
Tue 01:56:43 PM 43.4030 -70.6460 226° Southwest 447 514 40,000  Level FlightAware ADS-B
Tue 01:57:23 PM 43.3470 -70.7280 227° Southwest 449 517 40,000  Level FlightAware ADS-B
Tue 01:58:08 PM 43.2830 -70.8190 226° Southwest 452 520 40,000  Level FlightAware ADS-B
Tue 01:58:48 PM 43.2260 -70.9010 226° Southwest 451 519 40,000  Level FlightAware ADS-B
Tue 01:59:33 PM 43.1600 -70.9970 227° Southwest 453 521 40,000  Level FlightAware ADS-B
Tue 02:00:13 PM 43.1010 -71.0800 226° Southwest 453 521 40,000  Level FlightAware ADS-B
Tue 02:00:53 PM 43.0430 -71.1630 226° Southwest 453 521 40,000  Level FlightAware ADS-B
Tue 02:01:38 PM 42.9790 -71.2540 226° Southwest 456 525 40,000  Level FlightAware ADS-B
Tue 02:02:18 PM 42.9210 -71.3360 226° Southwest 459 528 40,000  Level FlightAware ADS-B
Tue 02:02:58 PM 42.8620 -71.4200 226° Southwest 461 531 40,000  Level FlightAware ADS-B
Tue 02:03:43 PM 42.7930 -71.5160 226° Southwest 461 531 40,000  Level FlightAware ADS-B
Tue 02:04:23 PM 42.7350 -71.5980 226° Southwest 460 529 40,000  Level FlightAware ADS-B
Tue 02:05:08 PM 42.6680 -71.6910 226° Southwest 456 525 40,000  Level FlightAware ADS-B
Tue 02:05:48 PM 42.6100 -71.7720 226° Southwest 454 522 40,000  Level FlightAware ADS-B
Tue 02:06:28 PM 42.5520 -71.8530 226° Southwest 454 522 40,000  Level FlightAware ADS-B
Tue 02:07:13 PM 42.4850 -71.9450 225° Southwest 457 526 40,000  Level FlightAware ADS-B
Tue 02:07:53 PM 42.4250 -72.0290 226° Southwest 459 528 40,000  Level FlightAware ADS-B
Tue 02:08:38 PM 42.3590 -72.1190 225° Southwest 463 533 40,000  Level FlightAware ADS-B
Tue 02:09:18 PM 42.2990 -72.2020 226° Southwest 464 534 40,000  Level FlightAware ADS-B
Tue 02:10:03 PM 42.2290 -72.2970 225° Southwest 463 533 40,000  Level FlightAware ADS-B
Tue 02:10:43 PM 42.1710 -72.3770 226° Southwest 459 528 40,000  Level FlightAware ADS-B
Tue 02:11:23 PM 42.1100 -72.4600 225° Southwest 461 531 40,000  Level FlightAware ADS-B
Tue 02:12:08 PM 42.0430 -72.5500 225° Southwest 464 534 40,000  Level FlightAware ADS-B
Tue 02:12:48 PM 41.9850 -72.6290 225° Southwest 465 535 40,000  Level FlightAware ADS-B
Tue 02:13:28 PM 41.9240 -72.7120 225° Southwest 461 531 40,000  Level FlightAware ADS-B
Tue 02:14:23 PM 41.8470 -72.8180 226° Southwest 458 527 40,000  Level FlightAware ADS-B
Tue 02:15:23 PM 41.9640 -72.6580 45° Northeast 463 533 40,000  Level FlightAware ADS-B
Tue 02:15:35 PM 41.7308 -72.9756 226° Southwest 464 534 40,000  Level FlightAware ADS-B
Tue 02:16:06 PM 41.6843 -73.0386 225° Southwest 466 536 40,000  Level FlightAware ADS-B
Tue 02:16:37 PM 41.6370 -73.1027 225° Southwest 467 537 40,000 423 Level FlightAware ADS-B
Tue 02:17:17 PM 41.5772 -73.1834 225° Southwest 465 535 40,500 845 Climbing FlightAware ADS-B
Tue 02:17:48 PM 41.5310 -73.2452 225° Southwest 432 497 41,000 448 Climbing FlightAware ADS-B
Tue 02:18:24 PM 41.4810 -73.3127 225° Southwest 429 494 41,000  Level FlightAware ADS-B
Tue 02:18:58 PM 41.4337 -73.3761 225° Southwest 429 494 41,000  Level FlightAware ADS-B
Tue 02:19:31 PM 41.3885 -73.4367 225° Southwest 424 488 41,000  Level FlightAware ADS-B
Tue 02:20:02 PM 41.3458 -73.4936 225° Southwest 425 489 41,000  Level FlightAware ADS-B
Tue 02:20:35 PM 41.2998 -73.5551 225° Southwest 429 494 41,000  Level FlightAware ADS-B
Tue 02:21:11 PM 41.2540 -73.6257 229° Southwest 421 484 41,000 -231 Level FlightAware ADS-B
Tue 02:21:53 PM 41.2060 -73.7080 232° Southwest 420 483 40,700 -1,773 Descending FlightAware ADS-B
Tue 02:22:39 PM 41.1451 -73.8096 232° Southwest 445 512 38,400 -1,929 Descending FlightAware ADS-B
Tue 02:23:17 PM 41.0941 -73.8953 232° Southwest 471 542 38,000 -343 Descending FlightAware ADS-B
Tue 02:23:49 PM 41.0509 -73.9677 232° Southwest 474 545 38,000  Level FlightAware ADS-B
Tue 02:24:12 PM 41.0197 -74.0197 232° Southwest 471 542 38,000  Level FlightAware ADS-B
Tue 02:24:22 PM 41.0064 -74.0419 232° Southwest 475 547 38,000  Level FlightAware ADS-B
Tue 02:24:47 PM 40.9723 -74.0988 232° Southwest 475 547 38,000  Level FlightAware ADS-B
Tue 02:24:52 PM 40.9655 -74.1102 232° Southwest 475 547 38,000  Level FlightAware ADS-B
Tue 02:25:18 PM 40.9291 -74.1708 232° Southwest 477 549 38,000  Level FlightAware ADS-B
Tue 02:25:24 PM 40.9219 -74.1828 232° Southwest 477 549 38,000  Level FlightAware ADS-B
Tue 02:25:49 PM 40.8876 -74.2397 231° Southwest 478 550 38,000  Level FlightAware ADS-B
Tue 02:25:54 PM 40.8803 -74.2518 231° Southwest 478 550 38,000  Level FlightAware ADS-B
Tue 02:26:24 PM 40.8386 -74.3210 231° Southwest 480 552 38,000  Level FlightAware ADS-B
Tue 02:26:55 PM 40.7956 -74.3922 231° Southwest 480 552 38,000  Level FlightAware ADS-B
Tue 02:27:26 PM 40.7534 -74.4618 231° Southwest 479 551 38,000  Level FlightAware ADS-B
Tue 02:27:56 PM 40.7118 -74.5303 231° Southwest 479 551 38,000  Level FlightAware ADS-B
Tue 02:28:26 PM 40.6697 -74.5994 231° Southwest 479 551 38,000  Level FlightAware ADS-B
Tue 02:28:57 PM 40.6273 -74.6690 231° Southwest 478 550 38,000  Level FlightAware ADS-B
Tue 02:29:25 PM 40.5882 -74.7329 231° Southwest 480 552 38,000  Level FlightAware ADS-B
Tue 02:29:39 PM 40.5679 -74.7630 228° Southwest 485 558 38,000  Level FlightAware ADS-B
Tue 02:30:11 PM 40.5186 -74.8326 227° Southwest 484 557 38,000  Level FlightAware ADS-B
Tue 02:30:48 PM 40.4633 -74.9106 227° Southwest 483 556 38,000  Level FlightAware ADS-B
Tue 02:31:22 PM 40.4106 -74.9852 227° Southwest 483 556 38,000 -182 Level FlightAware ADS-B
Tue 02:31:54 PM 40.3626 -75.0526 227° Southwest 484 557 37,800 -762 Descending FlightAware ADS-B
Tue 02:32:25 PM 40.3150 -75.1193 227° Southwest 480 552 37,200 -1,015 Descending FlightAware ADS-B
Tue 02:32:59 PM 40.2645 -75.1899 227° Southwest 473 544 36,700 -923 Descending FlightAware ADS-B
Tue 02:33:30 PM 40.2181 -75.2547 227° Southwest 471 542 36,200 -656 Descending FlightAware ADS-B
Tue 02:34:03 PM 40.1682 -75.3242 227° Southwest 468 539 36,000 -185 Descending FlightAware ADS-B
Tue 02:34:35 PM 40.1209 -75.3900 227° Southwest 470 541 36,000  Level FlightAware ADS-B
Tue 02:35:06 PM 40.0757 -75.4527 227° Southwest 468 539 36,000  Level FlightAware ADS-B
Tue 02:35:38 PM 40.0277 -75.5191 227° Southwest 463 533 36,000  Level FlightAware ADS-B
Tue 02:36:11 PM 39.9800 -75.5850 227° Southwest 464 534 36,000  Level FlightAware ADS-B
Tue 02:36:42 PM 39.9340 -75.6485 227° Southwest 466 536 36,000  Level FlightAware ADS-B
Tue 02:37:20 PM 39.8811 -75.7299 230° Southwest 460 529 36,000  Level FlightAware ADS-B
Tue 02:37:52 PM 39.8381 -75.7984 231° Southwest 459 528 36,000  Level FlightAware ADS-B
Tue 02:38:23 PM 39.7969 -75.8642 231° Southwest 459 528 36,000  Level FlightAware ADS-B
Tue 02:38:53 PM 39.7563 -75.9288 231° Southwest 461 531 36,000  Level FlightAware ADS-B
Tue 02:39:23 PM 39.7220 -75.9830 231° Southwest 458 527 36,000  Level FlightAware ADS-B
Tue 02:39:30 PM 39.7077 -76.0059 231° Southwest 457 526 36,000  Level FlightAware ADS-B
Tue 02:40:00 PM 39.6673 -76.0699 231° Southwest 455 524 36,000  Level FlightAware ADS-B
Tue 02:40:30 PM 39.6273 -76.1313 230° Southwest 454 522 36,000  Level FlightAware ADS-B
Tue 02:41:03 PM 39.5834 -76.2024 231° Southwest 454 522 36,000  Level FlightAware ADS-B
Tue 02:41:51 PM 39.5179 -76.3029 230° Southwest 458 527 36,000  Level FlightAware ADS-B
Tue 02:42:25 PM 39.4718 -76.3735 230° Southwest 458 527 36,000  Level FlightAware ADS-B
Tue 02:42:56 PM 39.4296 -76.4393 230° Southwest 458 527 36,000  Level FlightAware ADS-B
Tue 02:43:38 PM 39.3738 -76.5275 231° Southwest 458 527 36,000  Level FlightAware ADS-B
Tue 02:44:08 PM 39.3336 -76.5908 231° Southwest 458 527 36,000  Level FlightAware ADS-B
Tue 02:44:40 PM 39.2908 -76.6579 231° Southwest 457 526 36,000  Level FlightAware ADS-B
Tue 02:45:13 PM 39.2600 -76.7060 230° Southwest 455 524 36,000  Level FlightAware ADS-B
Tue 02:45:18 PM 39.2398 -76.7378 231° Southwest 455 524 36,000  Level FlightAware ADS-B
Tue 02:45:54 PM 39.1914 -76.8132 230° Southwest 454 522 36,000  Level FlightAware ADS-B
Tue 02:46:26 PM 39.1486 -76.8799 230° Southwest 454 522 36,000  Level FlightAware ADS-B
Tue 02:46:57 PM 39.1073 -76.9442 230° Southwest 455 524 36,000  Level FlightAware ADS-B
Tue 02:47:31 PM 39.0611 -77.0137 229° Southwest 454 522 36,000  Level FlightAware ADS-B
Tue 02:47:45 PM 39.0396 -77.0417 225° Southwest 458 527 36,000  Level FlightAware ADS-B
Tue 02:48:23 PM 38.9792 -77.1098 221° Southwest 461 531 36,000  Level FlightAware ADS-B
Tue 02:48:54 PM 38.9296 -77.1644 221° Southwest 461 531 36,000  Level FlightAware ADS-B
Tue 02:49:26 PM 38.8780 -77.2211 221° Southwest 458 527 36,000  Level FlightAware ADS-B
Tue 02:49:57 PM 38.8285 -77.2752 220° Southwest 455 524 36,000  Level FlightAware ADS-B
Tue 02:50:32 PM 38.7726 -77.3364 220° Southwest 453 521 36,000  Level FlightAware ADS-B
Tue 02:51:02 PM 38.7237 -77.3897 220° Southwest 453 521 36,000  Level FlightAware ADS-B
Tue 02:51:47 PM 38.6528 -77.4668 220° Southwest 457 526 36,000  Level FlightAware ADS-B
Tue 02:52:31 PM 38.5812 -77.5446 220° Southwest 454 522 36,000  Level FlightAware ADS-B
Tue 02:53:02 PM 38.5318 -77.5980 220° Southwest 456 525 36,000  Level FlightAware ADS-B
Tue 02:53:32 PM 38.4831 -77.6505 220° Southwest 456 525 36,000  Level FlightAware ADS-B
Tue 02:54:07 PM 38.4272 -77.7108 220° Southwest 455 524 36,000  Level FlightAware ADS-B
Tue 02:54:43 PM 38.3790 -77.7620 220° Southwest 453 521 36,000  Level FlightAware ADS-B
Tue 02:55:12 PM 38.3227 -77.8231 220° Southwest 453 521 36,000  Level FlightAware ADS-B
Tue 02:55:44 PM 38.2723 -77.8772 220° Southwest 455 524 36,000  Level FlightAware ADS-B
Tue 02:56:22 PM 38.2111 -77.9426 220° Southwest 457 526 36,000  Level FlightAware ADS-B
Tue 02:57:39 PM 38.0850 -78.0769 220° Southwest 457 526 36,000  Level FlightAware ADS-B
Tue 02:58:18 PM 38.0300 -78.1370 221° Southwest 455 524 36,000  Level FlightAware ADS-B
Tue 02:58:53 PM 37.9870 -78.1910 225° Southwest 453 521 36,000  Level FlightAware ADS-B
Tue 02:59:38 PM 37.9230 -78.2840 229° Southwest 456 525 36,000  Level FlightAware ADS-B
Tue 03:01:53 PM 37.7350 -78.5540 229° Southwest 452 520 36,000  Level FlightAware ADS-B
Tue 03:02:38 PM 37.6810 -78.6310 228° Southwest 452 520 36,000  Level FlightAware ADS-B
Tue 03:03:38 PM 37.5880 -78.7430 224° Southwest 454 522 36,000  Level FlightAware ADS-B
Tue 03:04:18 PM 37.5360 -78.8050 223° Southwest 454 522 36,000  Level FlightAware ADS-B
Tue 03:04:58 PM 37.4840 -78.8660 223° Southwest 454 522 36,000 -887 Level FlightAware ADS-B
Tue 03:06:13 PM 37.3250 -79.0050 215° Southwest 456 525 34,300 -923 Descending FlightAware ADS-B
Tue 03:07:08 PM 37.2250 -79.1050 219° Southwest 457 526 34,000 -180 Descending FlightAware ADS-B
Tue 03:07:53 PM 37.1560 -79.1730 218° Southwest 458 527 34,000  Level FlightAware ADS-B
Tue 03:08:33 PM 37.0990 -79.2290 218° Southwest 458 527 34,000  Level FlightAware ADS-B
Tue 03:09:13 PM 37.0420 -79.2840 218° Southwest 458 527 34,000  Level FlightAware ADS-B
Tue 03:09:53 PM 36.9860 -79.3400 219° Southwest 458 527 34,000  Level FlightAware ADS-B
Tue 03:10:43 PM 36.9150 -79.4090 218° Southwest 458 527 34,000  Level FlightAware ADS-B
Tue 03:11:13 PM 36.8720 -79.4510 218° Southwest 458 527 34,000  Level FlightAware ADS-B
Tue 03:11:53 PM 36.8150 -79.5060 218° Southwest 458 527 34,000  Level FlightAware ADS-B
Tue 03:12:43 PM 36.7440 -79.5760 218° Southwest 458 527 34,000  Level FlightAware ADS-B
Tue 03:13:23 PM 36.6870 -79.6310 218° Southwest 458 527 34,000  Level FlightAware ADS-B
Tue 03:14:03 PM 36.6310 -79.6860 218° Southwest 458 527 34,000  Level FlightAware ADS-B
Tue 03:14:43 PM 36.5740 -79.7410 218° Southwest 458 527 34,000  Level FlightAware ADS-B
Tue 03:15:23 PM 36.5170 -79.7970 218° Southwest 458 527 34,000  Level FlightAware ADS-B
Tue 03:16:03 PM 36.4600 -79.8520 218° Southwest 458 527 34,000  Level FlightAware ADS-B
Tue 03:16:43 PM 36.4040 -79.9070 218° Southwest 458 527 34,000 -9,600 Level FlightAware ADS-B
Tue 03:17:18 PM 36.2522 -80.0558 218° Southwest 423 487 22,000 -8,211 Descending Atlanta Center
Tue 03:18:18 PM 36.1611 -80.1400 217° Southwest 418 481 21,000 -2,150 Descending Atlanta Center
Tue 03:19:18 PM 36.0675 -80.2139 213° Southwest 413 475 17,700 -2,900 Descending Atlanta Center
Tue 03:20:18 PM 35.9719 -80.2978 215° Southwest 404 465 15,200 -2,300 Descending Atlanta Center
Tue 03:21:18 PM 35.8947 -80.3631 214° Southwest 389 448 13,100 -1,361 Descending Atlanta Center
Tue 03:21:55 PM 35.8400 -80.4167 218° Southwest 303 349 13,000 -100 Descending Atlanta Center
Tue 03:22:18 PM 35.8214 -80.4253 201° Southwest 348 400 13,000  Level Atlanta Center
Tue 03:22:50 PM 35.7769 -80.4681 218° Southwest 295 339 13,000  Level Atlanta Center
Tue 03:23:18 PM 35.7483 -80.4897 212° Southwest 310 357 13,000 -109 Level Atlanta Center
Tue 03:23:45 PM 35.7158 -80.5194 217° Southwest 296 341 12,900 -800 Descending Atlanta Center
Tue 03:24:18 PM 35.6811 -80.5464 212° Southwest 302 348 12,200 -1,441 Descending Atlanta Center
Tue 03:29:43 PM 35.4690 -80.9270 212° Southwest 203 234 4,300 -1,354 Descending FlightAware ADS-B
Tue 03:30:08 PM 35.4550 -80.9490 232° Southwest 203 234 4,300 -514 Level FlightAware ADS-B
Tue 03:30:18 PM 35.4450 -80.9430 154° Southeast 192 221 4,000 -667 Descending FlightAware ADS-B
Tue 03:30:53 PM 35.4160 -80.9600 206° Southwest 169 194 3,800 -300 Descending FlightAware ADS-B
Tue 03:31:18 PM 35.3960 -80.9670 196° South 174 200 3,700 -436 Descending FlightAware ADS-B
Tue 03:31:48 PM 35.3750 -80.9660 178° South 185 213 3,400 -764 Descending FlightAware ADS-B
Tue 03:32:13 PM 35.3520 -80.9640 176° South 165 190 3,000 -982 Descending FlightAware ADS-B
Tue 03:32:43 PM 35.3320 -80.9620 175° South 157 181 2,500 -1,029 Descending FlightAware ADS-B
Tue 03:32:48 PM 35.3260 -80.9620 180° South 153 176 2,400 -750 Descending FlightAware ADS-B
Tue 03:33:23 PM 35.3040 -80.9600 176° South 131 151 2,000 -646 Descending FlightAware ADS-B
Tue 03:33:53 PM 35.2860 -80.9580 175° South 130 150 1,700 -400 Descending FlightAware ADS-B
Tue 03:34:23 PM 35.2700 -80.9570 177° South 132 152 1,600 -400 Descending FlightAware ADS-B
Tue 03:34:53 PM 35.2506 -80.9553 177° South 128 147 1,300 -706 Descending FAA TRACON SMA TRACON (SMA)
Tue 03:35:14 PM 35.2369 -80.9542 176° South 129 148 1,000 -600 Descending FAA TRACON SMA TRACON (SMA)
Tue 03:35:33 PM 35.2311 -80.9536 176° South 128 147 900 -150 Descending FAA TRACON SMA TRACON (SMA)
Tue 03:35:54 PM 35.2311 -80.9536 321° Northwest 128 147 900  Level FAA TRACON SMA TRACON (SMA)

Login

Don't have an account? Register now (free) for customized features, flight alerts, and more!